الصفحة الرئيسية
METAR-TAF:

METAR-TAF

مطار :

Aoba Island, فانواتو

دائرة عرض: 15-18-24S, خط طول: 167-58-02E, ارتفاع: 51 متر

مراقبة الطقس الحالي

تاريخ ووقت الإصدار 19ساعات و 21 دقيقة قبل الساعة 06:00UTC
رياح هادئة
درجة الحرارة 30°درجة مئوية
الرطوبة 84%
ضغط 1008 hPa
الرؤية 10 كم أو أكثر
غيوم متفرقة على ارتفاع 2000 قدم

METAR: NVSG 200600Z 00000KT 9999 SCT020 30/27 Q1008

زمن: 12:21 (01:21 UTC)

توقعات

تاريخ ووقت الإصدار 2ساعات و 32 دقيقة قبل الساعة 22:49UTC
التوقعات صالحة من21 الساعة 00 UTC إلى 21 الساعة 24 UTC
ريح 7 عقدة من الغرب/الشمال الغربي
الرؤية: 9000 متر
غيوم متفرقة على ارتفاع 2000 قدم
غيوم مفككة على ارتفاع 1800 قدم
زخات من الأمطار الخفيفة

TAF: NVSG 202249Z 2100/2124 30007KT 9999 SCT020 INTER 2106/2109 9000 -SHRA BKN018

أرصاد الطقس والتوقعات من أكثر من 4000 مطار (تقارير الطقس للمطار METAR والتنبؤ بالطقس بالمطارTAF).

المحطات المتاحة هي النقط الصفراء والحمراء على الخريطة.

حرك المؤشر فوق النقطة لمعرفة اسم المحطة.

ثم انقر لمعرفة أرصاد وتوقعات الطقس.

لتغيير الخارطة: اضغط على الأزرار الخضراء مع رمز الصليب الأسود للتكبير. على الزر الأخضر مع شرطة للتصغير، أو على الأسهم الخضراء للخرائط المجاورة.


METAR-TAF: